Aviation Digital Data Service (ADDS)

Output produced by TAFs form (1228 UTC 25 July 2017)
found at http://www.aviationweather.gov/adds/tafs/
 
METAR text: RJCO 251040Z 35010KT 9999 FEW015 SCT030 21/18 Q1004 RMK 1ST015 3CU030 A2965
Conditions at: RJCO (SAPPORO (JGSDF/C, JP) observed 1040 UTC 25 July 2017
Temperature: 21.0°C (70°F)
Dewpoint: 18.0°C (64°F) [RH = 83%]
Pressure (altimeter): 29.65 inches Hg (1004.0 mb)
Winds: from the N (350 degrees) at 12 MPH (10 knots; 5.2 m/s)
Visibility: 6 or more miles (10+ km)
Ceiling: at least 12,000 feet AGL
Clouds: few clouds at 1500 feet AGL
scattered clouds at 3000 feet AGL
Weather: no significant weather observed at this time